Time;durP1;ratioP1;P1;durP2;ratioP2;P2;SDS_P1;SDS_P2;PMS_P1;PMS_P2;Temp;Humidity;BMP_temperature;BMP_pressure;BME280_temperature;BME280_humidity;BME280_pressure;Samples;Min_cycle;Max_cycle;Signal;HPM_P1;HPM_P2
2023/05/05 00:00:56;;;;;;;1.10;1.00;;;22.30;49.20;;;;;;5053179;28;20032;-73
2023/05/05 00:03:23;;;;;;;1.60;1.20;;;22.50;48.10;;;;;;5053170;28;20036;-74
2023/05/05 00:05:51;;;;;;;1.35;1.25;;;22.50;79.60;;;;;;5053229;28;20438;-79
2023/05/05 00:08:16;;;;;;;2.40;1.20;;;22.70;67.50;;;;;;5053097;28;20386;-79
2023/05/05 00:10:49;;;;;;;1.52;1.30;;;22.20;56.50;;;;;;5053049;28;20109;-79
2023/05/05 00:13:15;;;;;;;2.50;1.13;;;;;;;;;;5052893;28;20037;-79
2023/05/05 00:15:42;;;;;;;1.10;1.00;;;22.10;78.90;;;;;;5052978;28;20029;-80
2023/05/05 00:18:09;;;;;;;1.25;1.10;;;22.40;47.50;;;;;;5052891;28;20025;-79
2023/05/05 00:20:35;;;;;;;4.20;1.52;;;21.90;69.90;;;;;;5052807;28;20075;-78
2023/05/05 00:23:00;;;;;;;1.20;1.10;;;22.50;68.80;;;;;;5052882;28;20079;-73
2023/05/05 00:25:26;;;;;;;1.38;1.00;;;;;;;;;;5052676;28;20433;-73
2023/05/05 00:27:52;;;;;;;1.27;1.17;;;;;;;;;;5052791;28;20025;-73
2023/05/05 00:30:18;;;;;;;1.35;1.13;;;;;;;;;;5052581;28;20074;-73
2023/05/05 00:32:47;;;;;;;1.30;1.13;;;22.30;59.30;;;;;;5052578;28;20451;-73
2023/05/05 00:35:13;;;;;;;1.65;0.98;;;22.70;79.60;;;;;;5052547;28;20025;-73
2023/05/05 00:37:38;;;;;;;1.38;1.27;;;22.00;74.90;;;;;;5052461;28;20475;-73
2023/05/05 00:40:05;;;;;;;1.60;1.50;;;22.30;47.90;;;;;;5052505;28;20017;-73
2023/05/05 00:42:58;;;;;;;1.25;1.15;;;22.30;79.30;;;;;;5052548;28;20382;-78
2023/05/05 00:45:24;;;;;;;1.13;1.08;;;22.50;79.70;;;;;;5051369;28;20044;-79
2023/05/05 00:47:53;;;;;;;1.67;1.30;;;22.30;79.40;;;;;;5052497;28;20029;-79
2023/05/05 00:50:24;;;;;;;1.15;1.05;;;22.30;79.50;;;;;;5052333;28;20032;-79
2023/05/05 00:52:53;;;;;;;1.42;1.02;;;22.10;79.20;;;;;;5052318;28;20037;-79
2023/05/05 00:55:19;;;;;;;1.17;1.08;;;22.10;79.40;;;;;;5052145;28;20051;-79
2023/05/05 00:57:47;;;;;;;0.88;0.88;;;22.10;79.20;;;;;;5052010;28;20021;-79
2023/05/05 01:00:13;;;;;;;1.65;1.08;;;22.20;70.90;;;;;;5052270;28;20057;-73
2023/05/05 01:02:40;;;;;;;1.08;1.08;;;22.50;72.10;;;;;;5050818;28;20083;-73
2023/05/05 01:05:07;;;;;;;3.35;1.23;;;22.10;79.40;;;;;;5052113;28;20027;-73
2023/05/05 01:07:33;;;;;;;1.83;1.10;;;;;;;;;;5052265;28;20033;-73
2023/05/05 01:10:09;;;;;;;1.95;0.82;;;22.10;59.90;;;;;;5052070;28;20383;-73
2023/05/05 01:12:37;;;;;;;1.13;0.88;;;22.00;76.10;;;;;;5051945;28;20033;-73
2023/05/05 01:15:14;;;;;;;1.10;1.00;;;22.40;79.60;;;;;;5051938;28;20033;-73
2023/05/05 01:17:51;;;;;;;1.00;0.90;;;22.20;79.50;;;;;;5052028;28;20025;-73
2023/05/05 01:20:27;;;;;;;1.10;1.00;;;22.40;79.50;;;;;;5051881;28;20483;-73
2023/05/05 01:22:59;;;;;;;0.90;0.90;;;22.10;48.10;;;;;;5051932;28;20025;-73
2023/05/05 01:25:45;;;;;;;1.67;0.80;;;22.10;46.50;;;;;;5051836;28;20505;-73
2023/05/05 01:28:23;;;;;;;0.88;0.70;;;22.40;79.70;;;;;;5051928;28;20029;-73
2023/05/05 01:31:07;;;;;;;0.98;0.80;;;22.20;63.50;;;;;;5051793;28;20387;-73
2023/05/05 01:33:52;;;;;;;0.80;0.80;;;22.10;55.00;;;;;;5051781;28;20498;-74
2023/05/05 01:36:27;;;;;;;0.68;0.68;;;21.70;46.30;;;;;;5051909;28;20029;-73
2023/05/05 01:38:59;;;;;;;1.20;0.70;;;22.10;79.60;;;;;;5051832;28;20056;-73
2023/05/05 01:41:30;;;;;;;0.88;0.73;;;22.10;79.20;;;;;;5051784;28;20083;-73
2023/05/05 01:44:00;;;;;;;1.20;1.05;;;21.90;56.50;;;;;;5051711;28;20079;-73
2023/05/05 01:46:26;;;;;;;1.05;0.75;;;22.00;55.70;;;;;;5051584;28;20036;-73
2023/05/05 01:48:54;;;;;;;0.80;0.80;;;22.00;48.00;;;;;;5050276;28;20522;-73
2023/05/05 01:51:23;;;;;;;1.20;1.10;;;24.60;49.40;;;;;;5051471;28;20075;-73
2023/05/05 01:53:51;;;;;;;1.33;0.80;;;21.70;48.40;;;;;;5051470;28;20473;-73
2023/05/05 01:56:19;;;;;;;1.00;0.90;;;22.00;79.40;;;;;;5051949;28;20028;-74
2023/05/05 01:58:46;;;;;;;1.02;0.88;;;22.10;78.80;;;;;;5051933;28;20036;-74
2023/05/05 02:01:13;;;;;;;0.70;0.70;;;22.00;54.30;;;;;;5051979;28;20078;-74
2023/05/05 02:03:40;;;;;;;0.90;0.70;;;22.00;78.10;;;;;;5051685;28;20151;-73
2023/05/05 02:06:08;;;;;;;0.82;0.80;;;21.70;47.80;;;;;;5051795;28;20021;-73
2023/05/05 02:08:36;;;;;;;0.80;0.70;;;21.60;79.20;;;;;;5051531;28;20425;-73
2023/05/05 02:11:03;;;;;;;0.80;0.65;;;21.90;52.40;;;;;;5053980;28;20047;-73
2023/05/05 02:13:31;;;;;;;1.02;0.80;;;21.80;79.40;;;;;;5055303;28;20048;-78
2023/05/05 02:15:58;;;;;;;1.15;0.80;;;21.90;79.50;;;;;;5055392;28;20025;-79
2023/05/05 02:18:24;;;;;;;1.40;0.75;;;22.10;67.00;;;;;;5055514;28;20017;-79
2023/05/05 02:20:52;;;;;;;0.70;0.70;;;;;;;;;;5055359;28;20137;-79
2023/05/05 02:23:18;;;;;;;0.82;0.70;;;21.80;79.50;;;;;;5055397;28;20111;-79
2023/05/05 02:25:49;;;;;;;1.20;0.80;;;22.20;79.80;;;;;;5055511;28;20021;-79
2023/05/05 02:28:19;;;;;;;0.90;0.80;;;22.10;61.50;;;;;;5055098;28;20033;-79
2023/05/05 02:30:56;;;;;;;1.25;0.90;;;22.20;79.50;;;;;;5055239;28;20045;-79
2023/05/05 02:33:24;;;;;;;0.93;0.73;;;24.10;49.30;;;;;;5055389;28;20025;-79
2023/05/05 02:35:52;;;;;;;0.77;0.70;;;21.50;79.20;;;;;;5054895;28;20459;-79
2023/05/05 02:38:21;;;;;;;1.42;0.80;;;21.70;79.30;;;;;;5054813;28;20021;-78
2023/05/05 02:40:49;;;;;;;3.28;0.88;;;21.80;79.30;;;;;;5054695;28;20056;-79
2023/05/05 02:43:19;;;;;;;0.70;0.70;;;21.90;79.50;;;;;;5054995;28;20052;-79
2023/05/05 02:45:45;;;;;;;0.60;0.60;;;22.00;79.80;;;;;;5054792;28;20025;-79
2023/05/05 02:48:11;;;;;;;0.77;0.70;;;22.10;79.80;;;;;;5054809;28;20029;-79
2023/05/05 02:50:37;;;;;;;0.63;0.63;;;21.40;79.40;;;;;;5054817;28;20044;-79
2023/05/05 02:53:03;;;;;;;1.00;0.70;;;21.70;79.60;;;;;;5054677;28;20108;-78
2023/05/05 02:55:38;;;;;;;0.63;0.63;;;21.80;79.60;;;;;;5054509;28;20515;-79
2023/05/05 02:58:07;;;;;;;1.48;0.80;;;21.60;79.30;;;;;;5054505;28;20383;-79
2023/05/05 03:00:38;;;;;;;0.73;0.60;;;21.90;79.70;;;;;;5054438;28;20025;-79
2023/05/05 03:03:36;;;;;;;0.95;0.70;;;21.70;50.90;;;;;;5054373;28;20033;-78
2023/05/05 03:06:17;;;;;;;0.50;0.50;;;21.50;64.20;;;;;;5049775;28;20048;-79
2023/05/05 03:09:05;;;;;;;1.05;0.75;;;21.70;63.50;;;;;;5054471;28;20051;-79
2023/05/05 03:11:39;;;;;;;1.48;0.90;;;22.00;74.90;;;;;;5054184;28;20403;-78
2023/05/05 03:14:11;;;;;;;1.42;0.80;;;21.70;79.70;;;;;;5054123;28;20433;-78
2023/05/05 03:16:40;;;;;;;1.20;0.70;;;21.60;79.40;;;;;;5054287;28;20025;-79
2023/05/05 03:19:09;;;;;;;1.25;0.77;;;21.90;79.90;;;;;;5054168;28;20017;-78
2023/05/05 03:21:35;;;;;;;1.30;0.80;;;21.70;47.90;;;;;;5053674;28;20047;-79
2023/05/05 03:24:14;;;;;;;0.77;0.70;;;21.50;65.90;;;;;;5054108;28;20443;-78
2023/05/05 03:26:40;;;;;;;0.65;0.60;;;;;;;;;;5054291;28;20056;-73
2023/05/05 03:29:06;;;;;;;1.25;0.90;;;;;;;;;;5053880;28;20488;-73
2023/05/05 03:31:32;;;;;;;1.48;0.82;;;;;;;;;;5053739;28;20515;-73
2023/05/05 03:33:58;;;;;;;0.77;0.70;;;21.70;50.60;;;;;;5052434;28;20472;-73
2023/05/05 03:36:26;;;;;;;2.78;0.65;;;;;;;;;;5053707;28;20033;-73
2023/05/05 03:38:52;;;;;;;1.92;0.88;;;;;;;;;;5053744;28;20025;-73
2023/05/05 03:41:18;;;;;;;1.10;0.52;;;21.60;59.80;;;;;;5053608;28;20079;-73
2023/05/05 03:43:45;;;;;;;1.42;0.90;;;;;;;;;;5053597;28;20033;-73
2023/05/05 03:46:10;;;;;;;2.30;0.93;;;21.60;64.20;;;;;;5053515;28;20025;-73
2023/05/05 03:48:36;;;;;;;0.77;0.60;;;;;;;;;;5053540;28;20086;-73
2023/05/05 03:51:02;;;;;;;0.77;0.60;;;;;;;;;;5053230;28;20029;-73
2023/05/05 03:53:28;;;;;;;0.73;0.70;;;;;;;;;;5053205;28;20086;-73
2023/05/05 03:55:54;;;;;;;1.15;0.80;;;21.40;79.70;;;;;;5053261;28;20070;-73
2023/05/05 03:58:20;;;;;;;1.77;1.10;;;21.70;79.70;;;;;;5053467;28;20029;-73
2023/05/05 04:00:46;;;;;;;1.05;0.75;;;21.50;60.20;;;;;;5053170;28;20371;-73
2023/05/05 04:03:12;;;;;;;1.38;0.70;;;;;;;;;;5053138;28;20037;-73
2023/05/05 04:05:38;;;;;;;1.30;0.68;;;;;;;;;;5053153;28;20025;-73
2023/05/05 04:08:05;;;;;;;2.00;0.80;;;;;;;;;;5053059;28;20056;-73
2023/05/05 04:10:31;;;;;;;1.85;0.98;;;;;;;;;;5053231;28;20070;-74
2023/05/05 04:12:56;;;;;;;3.45;0.77;;;21.30;57.00;;;;;;5052818;28;20040;-73
2023/05/05 04:15:22;;;;;;;3.05;1.20;;;;;;;;;;5053137;28;20033;-73
2023/05/05 04:17:48;;;;;;;1.77;0.95;;;;;;;;;;5052926;28;20484;-73
2023/05/05 04:20:14;;;;;;;1.83;1.08;;;;;;;;;;5052826;28;20027;-73
2023/05/05 04:22:40;;;;;;;1.88;0.90;;;;;;;;;;5052835;28;20028;-73
2023/05/05 04:25:06;;;;;;;1.63;0.68;;;;;;;;;;5052744;28;20056;-73
2023/05/05 04:27:32;;;;;;;1.30;0.80;;;;;;;;;;5052787;28;20033;-74
2023/05/05 04:29:58;;;;;;;2.15;0.65;;;;;;;;;;5052790;28;20029;-73
2023/05/05 04:32:24;;;;;;;1.17;0.52;;;;;;;;;;5051921;28;20048;-73
2023/05/05 04:34:50;;;;;;;1.30;0.60;;;;;;;;;;5052510;28;20042;-73
2023/05/05 04:37:16;;;;;;;0.82;0.82;;;;;;;;;;5052458;28;20476;-74
2023/05/05 04:39:42;;;;;;;0.95;0.82;;;;;;;;;;5052471;28;20086;-73
2023/05/05 04:42:09;;;;;;;0.88;0.65;;;;;;;;;;5052486;28;20033;-73
2023/05/05 04:44:35;;;;;;;1.75;0.95;;;21.40;70.30;;;;;;5052639;28;20047;-74
2023/05/05 04:47:00;;;;;;;0.95;0.52;;;21.30;59.80;;;;;;5052706;28;20063;-74
2023/05/05 04:49:29;;;;;;;0.57;0.55;;;21.30;48.60;;;;;;5052370;28;20391;-73
2023/05/05 04:51:55;;;;;;;0.70;0.70;;;21.50;80.30;;;;;;5052085;28;20041;-74
2023/05/05 04:54:21;;;;;;;1.77;1.02;;;21.50;80.20;;;;;;5052202;28;20119;-74
2023/05/05 04:56:48;;;;;;;0.60;0.60;;;20.80;79.70;;;;;;5052531;28;20029;-74
2023/05/05 04:59:14;;;;;;;1.05;0.80;;;21.40;80.30;;;;;;5052316;28;20036;-74
2023/05/05 05:01:40;;;;;;;0.55;0.55;;;;;;;;;;5052063;28;20029;-73
2023/05/05 05:04:07;;;;;;;2.10;0.80;;;21.00;52.20;;;;;;5052163;28;20453;-74
2023/05/05 05:06:33;;;;;;;0.70;0.70;;;21.50;80.10;;;;;;5051959;28;20104;-74
2023/05/05 05:08:59;;;;;;;1.42;0.85;;;21.20;79.00;;;;;;5052044;28;20100;-73
2023/05/05 05:11:26;;;;;;;3.00;0.90;;;21.00;79.80;;;;;;5052131;28;20383;-74
2023/05/05 05:13:51;;;;;;;1.17;0.95;;;21.20;80.20;;;;;;5051868;28;20036;-74
2023/05/05 05:16:17;;;;;;;0.95;0.95;;;20.90;80.40;;;;;;5052262;28;20380;-74
2023/05/05 05:18:43;;;;;;;0.95;0.95;;;;;;;;;;5052081;28;20108;-78
2023/05/05 05:21:09;;;;;;;1.20;1.10;;;21.20;80.60;;;;;;5051994;28;20028;-78
2023/05/05 05:23:35;;;;;;;1.52;1.33;;;21.20;80.30;;;;;;5051981;28;20025;-78
2023/05/05 05:26:01;;;;;;;2.20;1.77;;;21.10;79.70;;;;;;5051872;28;20115;-78
2023/05/05 05:28:26;;;;;;;2.33;2.03;;;21.10;80.80;;;;;;5051920;28;20033;-78
2023/05/05 05:30:53;;;;;;;2.95;2.67;;;;;;;;;;5051841;28;20086;-78
2023/05/05 05:33:19;;;;;;;3.03;2.83;;;;;;;;;;5051904;28;20108;-79
2023/05/05 05:35:44;;;;;;;4.00;3.70;;;21.50;58.30;;;;;;5051813;28;20033;-73
2023/05/05 05:38:10;;;;;;;3.65;3.45;;;;;;;;;;5051824;28;20029;-73
2023/05/05 05:40:36;;;;;;;3.97;3.78;;;;;;;;;;5051682;28;20025;-72
2023/05/05 05:43:03;;;;;;;4.70;4.30;;;;;;;;;;5051817;28;20195;-73
2023/05/05 05:45:29;;;;;;;4.72;4.38;;;;;;;;;;5055093;28;20032;-72
2023/05/05 05:47:54;;;;;;;4.38;4.00;;;21.30;61.00;;;;;;5055765;28;20033;-72
2023/05/05 05:50:21;;;;;;;4.57;4.28;;;21.40;74.90;;;;;;5055598;28;20052;-73
2023/05/05 05:52:47;;;;;;;4.20;4.00;;;21.30;81.30;;;;;;5055541;28;20041;-73
2023/05/05 05:55:12;;;;;;;4.13;3.83;;;21.50;61.40;;;;;;5055586;28;20509;-79
2023/05/05 05:57:38;;;;;;;4.60;4.03;;;;;;;;;;5055611;28;20442;-80
2023/05/05 06:00:05;;;;;;;3.92;3.63;;;21.10;48.80;;;;;;5055472;28;20104;-79
2023/05/05 06:02:31;;;;;;;3.55;3.30;;;21.40;62.20;;;;;;5055761;28;20147;-77
2023/05/05 06:04:56;;;;;;;3.42;3.17;;;21.40;81.50;;;;;;5055694;28;20025;-76
2023/05/05 06:07:22;;;;;;;3.88;3.00;;;;;;;;;;5055479;28;20391;-78
2023/05/05 06:09:49;;;;;;;3.35;3.05;;;;;;;;;;5055308;28;20029;-77
2023/05/05 06:12:15;;;;;;;5.22;3.03;;;;;;;;;;5055164;28;20513;-78
2023/05/05 06:14:41;;;;;;;2.90;2.70;;;;;;;;;;5055353;28;20060;-78
2023/05/05 06:17:07;;;;;;;2.22;2.13;;;20.70;81.10;;;;;;5055206;28;20037;-77
2023/05/05 06:19:33;;;;;;;2.53;2.33;;;;;;;;;;5053941;28;20147;-77
2023/05/05 06:21:58;;;;;;;3.13;2.70;;;21.50;66.10;;;;;;5055294;28;20029;-79
2023/05/05 06:24:24;;;;;;;3.45;2.45;;;;;;;;;;5055190;28;20028;-78
2023/05/05 06:26:50;;;;;;;5.88;2.15;;;;;;;;;;5059886;28;20037;-79
2023/05/05 06:29:16;;;;;;;7.15;2.80;;;;;;;;;;5058337;28;20509;-74
2023/05/05 06:31:42;;;;;;;12.90;2.40;;;;;;;;;;5056378;28;20044;-79
2023/05/05 06:34:08;;;;;;;14.93;2.72;;;;;;;;;;5055046;28;20048;-78
2023/05/05 06:36:34;;;;;;;8.73;2.42;;;;;;;;;;5054842;28;20017;-78
2023/05/05 06:39:00;;;;;;;9.70;2.75;;;;;;;;;;5054857;28;20035;-79
2023/05/05 06:41:26;;;;;;;5.05;2.10;;;;;;;;;;5054903;28;20048;-77
2023/05/05 06:43:52;;;;;;;6.05;2.30;;;;;;;;;;5053311;28;20028;-78
2023/05/05 06:46:18;;;;;;;7.05;2.33;;;;;;;;;;5054614;28;20032;-78
2023/05/05 06:48:44;;;;;;;5.78;2.00;;;;;;;;;;5054609;28;20032;-72
2023/05/05 06:51:10;;;;;;;7.78;2.40;;;;;;;;;;5053280;28;20021;-79
2023/05/05 06:53:36;;;;;;;3.97;2.08;;;;;;;;;;5056740;28;20045;-82
2023/05/05 06:56:02;;;;;;;8.05;2.30;;;;;;;;;;5053229;28;20025;-84
2023/05/05 06:58:28;;;;;;;7.13;2.65;;;21.30;82.20;;;;;;5055419;28;20035;-81
2023/05/05 07:00:54;;;;;;;9.25;2.28;;;21.10;81.10;;;;;;5055184;28;20543;-81
2023/05/05 07:03:19;;;;;;;8.40;2.33;;;21.50;80.50;;;;;;5054935;28;20142;-81
2023/05/05 07:05:45;;;;;;;8.02;2.30;;;21.80;64.90;;;;;;5054987;28;20108;-81
2023/05/05 07:08:11;;;;;;;5.28;2.22;;;21.50;82.40;;;;;;5055009;28;20023;-74
2023/05/05 07:10:37;;;;;;;4.65;2.03;;;21.80;82.50;;;;;;5054469;28;20043;-74
2023/05/05 07:13:05;;;;;;;9.15;2.78;;;22.00;83.00;;;;;;5054224;28;20037;-74
2023/05/05 07:15:31;;;;;;;7.82;2.47;;;22.00;83.60;;;;;;5054373;28;20033;-73
2023/05/05 07:17:57;;;;;;;11.10;2.85;;;22.10;82.80;;;;;;5054100;28;20029;-75
2023/05/05 07:20:23;;;;;;;20.60;3.53;;;22.10;83.50;;;;;;5053942;28;20020;-74
2023/05/05 07:22:49;;;;;;;22.13;3.58;;;22.40;82.80;;;;;;5054274;28;20114;-74
2023/05/05 07:25:15;;;;;;;41.10;4.78;;;;;;;;;;5053912;28;20455;-74
2023/05/05 07:27:42;;;;;;;33.95;4.07;;;;;;;;;;5054266;28;20099;-73
2023/05/05 07:30:08;;;;;;;20.10;3.25;;;;;;;;;;5054214;28;20029;-73
2023/05/05 07:32:34;;;;;;;19.98;2.95;;;22.60;64.30;;;;;;5054154;28;20044;-73
2023/05/05 07:35:00;;;;;;;16.23;3.10;;;22.40;65.90;;;;;;5054500;28;20024;-74
2023/05/05 07:37:26;;;;;;;17.10;3.35;;;22.40;73.70;;;;;;5054372;28;20028;-74
2023/05/05 07:39:52;;;;;;;18.35;2.60;;;22.40;76.00;;;;;;5054043;28;20108;-74
2023/05/05 07:42:19;;;;;;;26.27;3.17;;;22.50;76.00;;;;;;5054181;28;20025;-74
2023/05/05 07:44:45;;;;;;;10.52;2.75;;;22.40;83.90;;;;;;5054197;28;20388;-74
2023/05/05 07:47:11;;;;;;;12.85;2.58;;;22.20;83.90;;;;;;5053636;28;20021;-74
2023/05/05 07:49:37;;;;;;;7.05;2.40;;;;;;;;;;5053744;28;20375;-74
2023/05/05 07:52:03;;;;;;;10.50;2.05;;;22.10;63.20;;;;;;5053250;28;20210;-74
2023/05/05 07:54:29;;;;;;;9.95;1.98;;;22.20;75.50;;;;;;5053171;28;20045;-75
2023/05/05 07:56:56;;;;;;;6.93;1.73;;;;;;;;;;5053469;28;20025;-74
2023/05/05 07:59:22;;;;;;;5.18;1.58;;;;;;;;;;5053259;28;20029;-74
2023/05/05 08:01:47;;;;;;;9.65;1.65;;;22.30;84.80;;;;;;5053250;28;20037;-74
2023/05/05 08:04:13;;;;;;;6.00;2.10;;;22.30;84.70;;;;;;5053202;28;20468;-74
2023/05/05 08:06:39;;;;;;;5.32;1.55;;;22.20;84.70;;;;;;5053077;28;20017;-74
2023/05/05 08:09:05;;;;;;;8.50;1.52;;;22.10;85.10;;;;;;5053390;28;20024;-74
2023/05/05 08:11:31;;;;;;;8.82;1.65;;;22.30;84.80;;;;;;5052717;28;20430;-73
2023/05/05 08:13:57;;;;;;;4.95;1.30;;;22.30;85.20;;;;;;5051694;28;20037;-73
2023/05/05 08:16:23;;;;;;;11.38;1.90;;;22.30;86.20;;;;;;5052928;28;20167;-74
2023/05/05 08:18:48;;;;;;;7.45;2.00;;;22.10;72.40;;;;;;5052964;28;20113;-73
2023/05/05 08:21:14;;;;;;;12.30;1.80;;;;;;;;;;5055170;28;20095;-73
2023/05/05 08:23:40;;;;;;;3.60;1.50;;;22.40;81.30;;;;;;5054808;28;20422;-72
2023/05/05 08:26:08;;;;;;;3.97;1.40;;;22.50;82.00;;;;;;5052947;28;20040;-74
2023/05/05 08:28:37;;;;;;;8.68;1.95;;;22.40;85.10;;;;;;5052832;28;20099;-73
2023/05/05 08:31:04;;;;;;;4.63;1.57;;;22.40;85.40;;;;;;5052743;28;20036;-72
2023/05/05 08:33:31;;;;;;;4.15;1.30;;;;;;;;;;5052799;28;20350;-73
2023/05/05 08:35:57;;;;;;;3.08;0.95;;;;;;;;;;5051350;28;20155;-75
2023/05/05 08:38:23;;;;;;;7.55;1.67;;;22.20;85.30;;;;;;5052849;28;20119;-74
2023/05/05 08:40:50;;;;;;;3.90;1.58;;;22.40;85.40;;;;;;5052487;28;20025;-73
2023/05/05 08:43:19;;;;;;;3.60;1.00;;;22.20;73.00;;;;;;5052790;28;20386;-73
2023/05/05 08:45:45;;;;;;;3.83;1.88;;;22.20;73.70;;;;;;5052982;28;20043;-74
2023/05/05 08:48:13;;;;;;;4.53;1.25;;;22.30;85.80;;;;;;5052515;28;20057;-72
2023/05/05 08:50:42;;;;;;;4.45;1.10;;;22.20;85.60;;;;;;5052765;28;20025;-72
2023/05/05 08:53:23;;;;;;;7.45;1.00;;;22.30;54.40;;;;;;5052787;28;20052;-72
2023/05/05 08:55:55;;;;;;;5.65;1.50;;;22.00;86.00;;;;;;5052461;28;20120;-71
2023/05/05 08:58:24;;;;;;;3.78;1.10;;;22.20;67.00;;;;;;5052770;28;20017;-74
2023/05/05 09:00:50;;;;;;;5.10;1.23;;;22.00;75.70;;;;;;5052742;28;20014;-75
2023/05/05 09:03:16;;;;;;;6.80;1.50;;;;;;;;;;5052128;28;20020;-72
2023/05/05 09:05:43;;;;;;;9.75;1.60;;;21.30;55.60;;;;;;5052394;28;20025;-75
2023/05/05 09:08:11;;;;;;;5.43;1.60;;;22.50;79.70;;;;;;5052062;28;20051;-74
2023/05/05 09:10:40;;;;;;;5.85;1.10;;;22.40;55.80;;;;;;5052308;28;20070;-75
2023/05/05 09:13:07;;;;;;;11.05;1.50;;;;;;;;;;5052139;28;20039;-75
2023/05/05 09:15:33;;;;;;;10.25;2.20;;;21.70;58.40;;;;;;5052132;28;20419;-75
2023/05/05 09:18:00;;;;;;;4.82;1.30;;;22.20;87.00;;;;;;5052136;28;20024;-74
2023/05/05 09:20:34;;;;;;;9.07;1.73;;;22.10;86.70;;;;;;5051554;28;20060;-74
2023/05/05 09:23:14;;;;;;;7.32;1.52;;;22.40;53.90;;;;;;5052117;28;20035;-74
2023/05/05 09:25:43;;;;;;;7.53;1.80;;;21.90;85.80;;;;;;5052085;28;20064;-74
2023/05/05 09:28:13;;;;;;;3.85;1.33;;;22.30;55.20;;;;;;5051828;28;20032;-74
2023/05/05 09:30:40;;;;;;;6.65;1.10;;;22.30;86.10;;;;;;5051881;28;20032;-74
2023/05/05 09:33:06;;;;;;;4.28;1.55;;;;;;;;;;5051783;28;20084;-73
2023/05/05 09:35:53;;;;;;;5.20;1.38;;;22.10;81.90;;;;;;5052128;28;20551;-74
2023/05/05 09:38:20;;;;;;;4.40;1.60;;;22.60;68.80;;;;;;5052121;28;20097;-73
2023/05/05 09:40:47;;;;;;;3.75;1.55;;;;;;;;;;5052045;28;20025;-74
2023/05/05 09:43:14;;;;;;;8.05;1.48;;;22.40;87.60;;;;;;5051621;28;20487;-75
2023/05/05 09:45:40;;;;;;;7.32;1.30;;;22.30;87.10;;;;;;5051858;28;20075;-75
2023/05/05 09:48:06;;;;;;;4.68;1.30;;;;;;;;;;5052005;28;20029;-75
2023/05/05 09:50:43;;;;;;;4.90;1.10;;;22.70;54.80;;;;;;5051977;28;20033;-80
2023/05/05 09:53:09;;;;;;;4.75;1.27;;;22.60;70.90;;;;;;5051921;28;20025;-76
2023/05/05 09:55:35;;;;;;;3.78;1.55;;;22.40;86.80;;;;;;5051291;28;20045;-75
2023/05/05 09:58:22;;;;;;;2.67;1.13;;;22.60;87.00;;;;;;5051900;28;20025;-75
2023/05/05 10:00:49;;;;;;;4.85;1.00;;;22.40;54.90;;;;;;5051818;28;20029;-75
2023/05/05 10:03:15;;;;;;;4.57;1.40;;;22.40;55.70;;;;;;5051541;28;20040;-75
2023/05/05 10:05:54;;;;;;;5.15;1.60;;;22.40;61.50;;;;;;5051466;28;20029;-75
2023/05/05 10:08:22;;;;;;;6.60;1.60;;;22.20;87.00;;;;;;5051460;28;20064;-74
2023/05/05 10:10:56;;;;;;;7.15;1.67;;;22.70;87.10;;;;;;5051407;28;20344;-79
2023/05/05 10:13:23;;;;;;;3.80;1.48;;;22.30;87.00;;;;;;5051386;28;20095;-75
2023/05/05 10:15:51;;;;;;;6.07;1.52;;;22.50;55.60;;;;;;5051438;28;20024;-76
2023/05/05 10:18:25;;;;;;;5.28;1.65;;;22.70;87.60;;;;;;5051411;28;20155;-76
2023/05/05 10:21:02;;;;;;;6.05;1.10;;;22.80;59.90;;;;;;5051262;28;20021;-75
2023/05/05 10:23:48;;;;;;;3.00;0.80;;;22.30;87.00;;;;;;5051505;28;20032;-76
2023/05/05 10:26:15;;;;;;;2.22;0.98;;;22.70;87.20;;;;;;5051594;28;20025;-75
2023/05/05 10:28:54;;;;;;;6.28;1.45;;;22.60;87.20;;;;;;5051563;28;20017;-76
2023/05/05 10:31:35;;;;;;;1.83;0.95;;;22.60;87.20;;;;;;5052790;28;20036;-76
2023/05/05 10:34:17;;;;;;;3.03;0.95;;;22.50;87.20;;;;;;5054947;28;20098;-76
2023/05/05 10:36:43;;;;;;;2.33;0.98;;;21.40;56.50;;;;;;5054998;28;20143;-76
2023/05/05 10:39:10;;;;;;;2.78;1.17;;;22.50;87.40;;;;;;5054927;28;20132;-73
2023/05/05 10:41:37;;;;;;;1.63;1.00;;;22.40;87.10;;;;;;5054850;28;20448;-74
2023/05/05 10:44:03;;;;;;;2.65;0.90;;;22.20;59.00;;;;;;5054785;28;20098;-72
2023/05/05 10:46:29;;;;;;;2.67;1.08;;;;;;;;;;5053434;28;20434;-75
2023/05/05 10:49:33;;;;;;;3.20;0.80;;;22.30;71.50;;;;;;5055035;28;20029;-77
2023/05/05 10:52:05;;;;;;;1.52;0.70;;;22.50;87.20;;;;;;5054422;28;20080;-74
2023/05/05 10:54:34;;;;;;;4.20;0.90;;;22.50;87.70;;;;;;5054438;28;20064;-76
2023/05/05 10:57:01;;;;;;;4.50;1.17;;;22.10;86.60;;;;;;5054737;28;20356;-73
2023/05/05 10:59:36;;;;;;;4.57;0.90;;;22.70;86.90;;;;;;5053394;28;20475;-73
2023/05/05 11:02:22;;;;;;;8.90;1.38;;;22.30;53.70;;;;;;5054666;28;20042;-73
2023/05/05 11:05:08;;;;;;;2.45;0.85;;;22.40;53.70;;;;;;5054216;28;20048;-73
2023/05/05 11:07:35;;;;;;;9.15;1.15;;;22.10;87.00;;;;;;5054667;28;20574;-73
2023/05/05 11:10:03;;;;;;;2.92;0.90;;;22.50;76.80;;;;;;5053445;28;20017;-73
2023/05/05 11:12:30;;;;;;;14.73;1.27;;;22.50;54.90;;;;;;5053725;28;20372;-73
2023/05/05 11:15:26;;;;;;;5.40;1.00;;;22.40;54.00;;;;;;5053164;28;20067;-73
2023/05/05 11:17:53;;;;;;;3.63;0.85;;;25.00;57.50;;;;;;5053459;28;20032;-73
2023/05/05 11:20:35;;;;;;;5.95;0.95;;;22.20;87.60;;;;;;5054453;28;20028;-73
2023/05/05 11:23:01;;;;;;;3.05;1.15;;;22.20;87.60;;;;;;5054112;28;20029;-73
2023/05/05 11:25:33;;;;;;;3.60;1.05;;;22.60;88.00;;;;;;5054702;28;20021;-73
2023/05/05 11:28:16;;;;;;;2.78;1.17;;;22.10;87.20;;;;;;5054296;28;20408;-72
2023/05/05 11:30:57;;;;;;;4.63;0.85;;;22.40;54.60;;;;;;5054168;28;20029;-74
2023/05/05 11:33:35;;;;;;;5.43;0.80;;;22.70;54.90;;;;;;5054107;28;20048;-73
2023/05/05 11:36:05;;;;;;;5.25;1.00;;;22.10;62.20;;;;;;5054054;28;20017;-73
2023/05/05 11:38:34;;;;;;;;;;;22.50;55.20;;;;;;5054282;28;20032;-73
2023/05/05 11:41:16;;;;;;;4.70;1.00;;;22.30;83.00;;;;;;5054158;28;19995;-73
2023/05/05 11:43:41;;;;;;;4.22;1.15;;;22.10;87.90;;;;;;5054040;28;20111;-76
2023/05/05 11:46:12;;;;;;;4.65;0.88;;;22.20;54.50;;;;;;5054466;28;20156;-76
2023/05/05 11:48:48;;;;;;;6.93;1.58;;;22.40;54.60;;;;;;5053044;28;20032;-75
2023/05/05 11:51:16;;;;;;;6.57;1.08;;;22.30;56.80;;;;;;5053851;28;20147;-75
2023/05/05 11:53:43;;;;;;;5.40;0.93;;;22.30;56.40;;;;;;5053199;28;20060;-75
2023/05/05 11:56:11;;;;;;;9.93;1.00;;;22.20;75.90;;;;;;5053320;28;20102;-76
2023/05/05 11:58:37;;;;;;;13.10;1.48;;;21.20;56.30;;;;;;5052072;28;20025;-77
2023/05/05 12:01:06;;;;;;;7.75;2.20;;;22.40;55.70;;;;;;5053237;28;20020;-77
2023/05/05 12:03:38;;;;;;;7.20;1.10;;;22.40;55.30;;;;;;5053448;28;20033;-76
2023/05/05 12:06:06;;;;;;;8.02;1.80;;;22.40;56.80;;;;;;5053065;28;20101;-77
2023/05/05 12:08:38;;;;;;;11.32;1.10;;;22.50;88.70;;;;;;5051642;28;20021;-77
2023/05/05 12:11:07;;;;;;;9.10;1.30;;;22.40;57.20;;;;;;5052792;28;20484;-76
2023/05/05 12:13:33;;;;;;;6.25;1.30;;;;;;;;;;5052737;28;20041;-76
2023/05/05 12:16:18;;;;;;;7.18;1.00;;;22.60;89.00;;;;;;5053135;28;20036;-76
2023/05/05 12:18:45;;;;;;;6.88;0.90;;;;;;;;;;5053537;28;20100;-76
2023/05/05 12:21:18;;;;;;;5.57;1.05;;;22.60;89.20;;;;;;5053026;28;20104;-72
2023/05/05 12:23:44;;;;;;;5.30;1.00;;;22.40;89.30;;;;;;5053090;28;20416;-73
2023/05/05 12:26:27;;;;;;;4.57;0.93;;;22.50;66.80;;;;;;5052941;28;20024;-73
2023/05/05 12:28:57;;;;;;;4.15;0.77;;;22.40;57.60;;;;;;5052929;28;20031;-73
2023/05/05 12:31:36;;;;;;;;;;;22.40;58.40;;;;;;5053295;28;20032;-73
2023/05/05 12:34:07;;;;;;;7.75;1.65;;;22.40;57.30;;;;;;5052629;28;20430;-73
2023/05/05 12:36:34;;;;;;;4.95;1.08;;;22.50;88.90;;;;;;5052715;28;20032;-73
2023/05/05 12:39:01;;;;;;;3.20;0.70;;;22.50;62.10;;;;;;5052013;28;20024;-72
2023/05/05 12:41:27;;;;;;;5.07;1.20;;;;;;;;;;5053066;28;20025;-72
2023/05/05 12:43:58;;;;;;;5.80;0.82;;;22.40;88.80;;;;;;5053013;28;20082;-72
2023/05/05 12:46:25;;;;;;;4.90;0.75;;;22.30;88.60;;;;;;5052894;28;20035;-72
2023/05/05 12:49:03;;;;;;;2.55;0.60;;;22.20;70.80;;;;;;5052736;28;20082;-72
2023/05/05 12:51:30;;;;;;;5.38;0.90;;;22.70;88.10;;;;;;5052466;28;20163;-71
2023/05/05 12:54:10;;;;;;;4.22;0.88;;;22.10;88.00;;;;;;5051696;28;20029;-72
2023/05/05 12:56:43;;;;;;;5.85;0.70;;;22.40;56.50;;;;;;5052161;28;20033;-77
2023/05/05 12:59:28;;;;;;;3.92;0.82;;;22.30;59.70;;;;;;5052367;28;20086;-73
2023/05/05 13:01:56;;;;;;;4.53;0.75;;;22.40;57.90;;;;;;5052399;28;20044;-73
2023/05/05 13:04:26;;;;;;;2.60;0.90;;;22.40;56.20;;;;;;5051976;28;20029;-74
2023/05/05 13:07:27;;;;;;;3.88;0.50;;;22.10;87.80;;;;;;5052090;28;20064;-72
2023/05/05 13:10:09;;;;;;;1.67;0.40;;;22.40;55.90;;;;;;5029680;28;20453;-73
2023/05/05 13:12:35;;;;;;;1.80;0.57;;;;;;;;;;5049894;28;20048;-72
2023/05/05 13:15:02;;;;;;;4.10;0.90;;;22.20;87.30;;;;;;5052163;28;20091;-78
2023/05/05 13:17:28;;;;;;;1.65;0.63;;;;;;;;;;5051977;28;20475;-78
2023/05/05 13:19:54;;;;;;;0.82;0.47;;;22.40;87.40;;;;;;5052025;28;20028;-78
2023/05/05 13:22:19;;;;;;;3.42;0.60;;;22.30;87.30;;;;;;5052077;28;20029;-78